sensor_id;sensor_type;location;lat;lon;timestamp;P1;durP1;ratioP1;P2;durP2;ratioP2
38715;SDS011;24833;49.324;8.694;2023-04-26T00:00:52;4.00;;;2.88;;
38715;SDS011;24833;49.324;8.694;2023-04-26T00:03:20;4.80;;;2.63;;
38715;SDS011;24833;49.324;8.694;2023-04-26T00:05:48;5.07;;;2.58;;
38715;SDS011;24833;49.324;8.694;2023-04-26T00:08:16;3.85;;;2.70;;
38715;SDS011;24833;49.324;8.694;2023-04-26T00:10:43;3.47;;;2.20;;
38715;SDS011;24833;49.324;8.694;2023-04-26T00:13:09;3.38;;;2.22;;
38715;SDS011;24833;49.324;8.694;2023-04-26T00:15:36;4.30;;;2.15;;
38715;SDS011;24833;49.324;8.694;2023-04-26T00:18:03;3.85;;;2.70;;
38715;SDS011;24833;49.324;8.694;2023-04-26T00:20:31;3.25;;;2.40;;
38715;SDS011;24833;49.324;8.694;2023-04-26T00:22:58;3.38;;;2.20;;
38715;SDS011;24833;49.324;8.694;2023-04-26T00:25:25;3.95;;;2.05;;
38715;SDS011;24833;49.324;8.694;2023-04-26T00:27:52;2.92;;;1.98;;
38715;SDS011;24833;49.324;8.694;2023-04-26T00:30:19;2.78;;;2.17;;
38715;SDS011;24833;49.324;8.694;2023-04-26T00:32:48;2.20;;;1.88;;
38715;SDS011;24833;49.324;8.694;2023-04-26T00:35:15;3.80;;;2.30;;
38715;SDS011;24833;49.324;8.694;2023-04-26T00:37:42;3.53;;;2.17;;
38715;SDS011;24833;49.324;8.694;2023-04-26T00:40:09;3.03;;;2.50;;
38715;SDS011;24833;49.324;8.694;2023-04-26T00:42:37;3.22;;;1.80;;
38715;SDS011;24833;49.324;8.694;2023-04-26T00:45:05;3.08;;;1.95;;
38715;SDS011;24833;49.324;8.694;2023-04-26T00:47:33;2.80;;;1.92;;
38715;SDS011;24833;49.324;8.694;2023-04-26T00:50:01;2.25;;;1.85;;
38715;SDS011;24833;49.324;8.694;2023-04-26T00:52:29;3.25;;;2.13;;
38715;SDS011;24833;49.324;8.694;2023-04-26T00:54:57;2.75;;;1.65;;
38715;SDS011;24833;49.324;8.694;2023-04-26T00:57:24;4.38;;;2.10;;
38715;SDS011;24833;49.324;8.694;2023-04-26T00:59:51;3.15;;;2.00;;
38715;SDS011;24833;49.324;8.694;2023-04-26T01:02:18;5.20;;;1.98;;
38715;SDS011;24833;49.324;8.694;2023-04-26T01:04:46;3.65;;;1.80;;
38715;SDS011;24833;49.324;8.694;2023-04-26T01:07:15;4.72;;;2.15;;
38715;SDS011;24833;49.324;8.694;2023-04-26T01:09:42;2.78;;;1.85;;
38715;SDS011;24833;49.324;8.694;2023-04-26T01:12:10;2.40;;;2.03;;
38715;SDS011;24833;49.324;8.694;2023-04-26T01:14:38;2.05;;;1.77;;
38715;SDS011;24833;49.324;8.694;2023-04-26T01:17:06;4.90;;;2.10;;
38715;SDS011;24833;49.324;8.694;2023-04-26T01:19:33;3.08;;;2.13;;
38715;SDS011;24833;49.324;8.694;2023-04-26T01:22:02;4.30;;;2.38;;
38715;SDS011;24833;49.324;8.694;2023-04-26T01:24:29;3.88;;;1.83;;
38715;SDS011;24833;49.324;8.694;2023-04-26T01:26:58;3.70;;;2.08;;
38715;SDS011;24833;49.324;8.694;2023-04-26T01:29:25;4.88;;;2.65;;
38715;SDS011;24833;49.324;8.694;2023-04-26T01:31:52;2.65;;;1.80;;
38715;SDS011;24833;49.324;8.694;2023-04-26T01:34:19;2.78;;;2.10;;
38715;SDS011;24833;49.324;8.694;2023-04-26T01:36:46;2.92;;;2.10;;
38715;SDS011;24833;49.324;8.694;2023-04-26T01:39:13;4.55;;;2.38;;
38715;SDS011;24833;49.324;8.694;2023-04-26T01:41:41;6.13;;;2.33;;
38715;SDS011;24833;49.324;8.694;2023-04-26T01:44:08;3.25;;;1.83;;
38715;SDS011;24833;49.324;8.694;2023-04-26T01:46:35;4.25;;;2.35;;
38715;SDS011;24833;49.324;8.694;2023-04-26T01:49:02;2.65;;;2.38;;
38715;SDS011;24833;49.324;8.694;2023-04-26T01:51:30;5.32;;;2.80;;
38715;SDS011;24833;49.324;8.694;2023-04-26T01:53:57;3.67;;;2.40;;
38715;SDS011;24833;49.324;8.694;2023-04-26T01:56:24;3.58;;;2.72;;
38715;SDS011;24833;49.324;8.694;2023-04-26T01:58:52;3.72;;;2.38;;
38715;SDS011;24833;49.324;8.694;2023-04-26T02:01:21;3.47;;;2.53;;
38715;SDS011;24833;49.324;8.694;2023-04-26T02:03:49;4.95;;;2.30;;
38715;SDS011;24833;49.324;8.694;2023-04-26T02:06:18;2.80;;;2.03;;
38715;SDS011;24833;49.324;8.694;2023-04-26T02:08:45;4.85;;;2.65;;
38715;SDS011;24833;49.324;8.694;2023-04-26T02:11:12;3.10;;;2.47;;
38715;SDS011;24833;49.324;8.694;2023-04-26T02:13:39;4.22;;;2.20;;
38715;SDS011;24833;49.324;8.694;2023-04-26T02:16:06;3.47;;;2.60;;
38715;SDS011;24833;49.324;8.694;2023-04-26T02:18:33;5.30;;;2.60;;
38715;SDS011;24833;49.324;8.694;2023-04-26T02:21:00;4.45;;;2.58;;
38715;SDS011;24833;49.324;8.694;2023-04-26T02:23:29;3.40;;;2.17;;
38715;SDS011;24833;49.324;8.694;2023-04-26T02:25:56;3.53;;;2.17;;
38715;SDS011;24833;49.324;8.694;2023-04-26T02:28:23;3.25;;;1.77;;
38715;SDS011;24833;49.324;8.694;2023-04-26T02:30:53;4.80;;;2.40;;
38715;SDS011;24833;49.324;8.694;2023-04-26T02:33:22;4.10;;;2.25;;
38715;SDS011;24833;49.324;8.694;2023-04-26T02:35:50;1.92;;;1.77;;
38715;SDS011;24833;49.324;8.694;2023-04-26T02:38:17;3.05;;;2.00;;
38715;SDS011;24833;49.324;8.694;2023-04-26T02:40:44;3.85;;;2.45;;
38715;SDS011;24833;49.324;8.694;2023-04-26T02:43:12;2.75;;;1.80;;
38715;SDS011;24833;49.324;8.694;2023-04-26T02:45:40;3.15;;;2.00;;
38715;SDS011;24833;49.324;8.694;2023-04-26T02:48:10;2.22;;;2.00;;
38715;SDS011;24833;49.324;8.694;2023-04-26T02:50:37;3.92;;;2.13;;
38715;SDS011;24833;49.324;8.694;2023-04-26T02:53:04;5.13;;;1.80;;
38715;SDS011;24833;49.324;8.694;2023-04-26T02:55:32;5.15;;;2.58;;
38715;SDS011;24833;49.324;8.694;2023-04-26T02:57:59;3.28;;;1.50;;
38715;SDS011;24833;49.324;8.694;2023-04-26T03:00:26;3.38;;;1.75;;
38715;SDS011;24833;49.324;8.694;2023-04-26T03:02:54;3.78;;;1.63;;
38715;SDS011;24833;49.324;8.694;2023-04-26T03:05:22;2.75;;;1.92;;
38715;SDS011;24833;49.324;8.694;2023-04-26T03:07:49;2.42;;;2.13;;
38715;SDS011;24833;49.324;8.694;2023-04-26T03:10:17;2.92;;;1.83;;
38715;SDS011;24833;49.324;8.694;2023-04-26T03:12:44;3.35;;;1.77;;
38715;SDS011;24833;49.324;8.694;2023-04-26T03:15:11;3.25;;;1.63;;
38715;SDS011;24833;49.324;8.694;2023-04-26T03:17:40;3.17;;;1.90;;
38715;SDS011;24833;49.324;8.694;2023-04-26T03:20:09;5.20;;;1.70;;
38715;SDS011;24833;49.324;8.694;2023-04-26T03:22:36;2.25;;;1.50;;
38715;SDS011;24833;49.324;8.694;2023-04-26T03:25:05;5.10;;;2.17;;
38715;SDS011;24833;49.324;8.694;2023-04-26T03:27:33;2.90;;;1.48;;
38715;SDS011;24833;49.324;8.694;2023-04-26T03:30:00;2.40;;;1.30;;
38715;SDS011;24833;49.324;8.694;2023-04-26T03:32:28;4.28;;;1.80;;
38715;SDS011;24833;49.324;8.694;2023-04-26T03:34:56;2.65;;;1.70;;
38715;SDS011;24833;49.324;8.694;2023-04-26T03:37:23;2.78;;;1.70;;
38715;SDS011;24833;49.324;8.694;2023-04-26T03:39:57;2.05;;;1.73;;
38715;SDS011;24833;49.324;8.694;2023-04-26T03:42:24;2.75;;;1.67;;
38715;SDS011;24833;49.324;8.694;2023-04-26T03:44:52;2.72;;;1.95;;
38715;SDS011;24833;49.324;8.694;2023-04-26T03:47:20;4.10;;;1.73;;
38715;SDS011;24833;49.324;8.694;2023-04-26T03:49:48;3.05;;;1.75;;
38715;SDS011;24833;49.324;8.694;2023-04-26T03:52:14;2.40;;;1.58;;
38715;SDS011;24833;49.324;8.694;2023-04-26T03:54:42;2.90;;;1.98;;
38715;SDS011;24833;49.324;8.694;2023-04-26T03:57:10;3.13;;;2.10;;
38715;SDS011;24833;49.324;8.694;2023-04-26T03:59:37;3.70;;;1.98;;
38715;SDS011;24833;49.324;8.694;2023-04-26T04:02:04;2.50;;;1.58;;
38715;SDS011;24833;49.324;8.694;2023-04-26T04:04:31;4.38;;;1.60;;
38715;SDS011;24833;49.324;8.694;2023-04-26T04:06:58;3.15;;;1.65;;
38715;SDS011;24833;49.324;8.694;2023-04-26T04:09:26;2.75;;;1.58;;
38715;SDS011;24833;49.324;8.694;2023-04-26T04:11:53;2.30;;;1.40;;
38715;SDS011;24833;49.324;8.694;2023-04-26T04:14:20;3.20;;;1.60;;
38715;SDS011;24833;49.324;8.694;2023-04-26T04:16:47;2.10;;;1.40;;
38715;SDS011;24833;49.324;8.694;2023-04-26T04:19:14;3.03;;;1.50;;
38715;SDS011;24833;49.324;8.694;2023-04-26T04:21:41;1.45;;;1.25;;
38715;SDS011;24833;49.324;8.694;2023-04-26T04:24:08;4.05;;;1.67;;
38715;SDS011;24833;49.324;8.694;2023-04-26T04:26:36;2.90;;;1.30;;
38715;SDS011;24833;49.324;8.694;2023-04-26T04:29:04;4.13;;;1.60;;
38715;SDS011;24833;49.324;8.694;2023-04-26T04:31:36;1.88;;;1.23;;
38715;SDS011;24833;49.324;8.694;2023-04-26T04:34:03;11.52;;;5.82;;
38715;SDS011;24833;49.324;8.694;2023-04-26T04:36:32;23.88;;;13.63;;
38715;SDS011;24833;49.324;8.694;2023-04-26T04:38:59;10.95;;;6.05;;
38715;SDS011;24833;49.324;8.694;2023-04-26T04:41:26;5.93;;;3.20;;
38715;SDS011;24833;49.324;8.694;2023-04-26T04:43:53;6.28;;;2.85;;
38715;SDS011;24833;49.324;8.694;2023-04-26T04:46:21;3.70;;;2.72;;
38715;SDS011;24833;49.324;8.694;2023-04-26T04:48:48;2.97;;;2.30;;
38715;SDS011;24833;49.324;8.694;2023-04-26T04:51:16;3.33;;;2.25;;
38715;SDS011;24833;49.324;8.694;2023-04-26T04:53:43;4.25;;;1.83;;
38715;SDS011;24833;49.324;8.694;2023-04-26T04:56:10;1.70;;;1.58;;
38715;SDS011;24833;49.324;8.694;2023-04-26T04:58:37;4.53;;;2.05;;
38715;SDS011;24833;49.324;8.694;2023-04-26T05:01:04;1.65;;;1.38;;
38715;SDS011;24833;49.324;8.694;2023-04-26T05:03:43;2.25;;;1.20;;
38715;SDS011;24833;49.324;8.694;2023-04-26T05:06:11;3.35;;;1.40;;
38715;SDS011;24833;49.324;8.694;2023-04-26T05:08:38;2.47;;;1.60;;
38715;SDS011;24833;49.324;8.694;2023-04-26T05:11:07;2.35;;;1.33;;
38715;SDS011;24833;49.324;8.694;2023-04-26T05:13:35;1.55;;;1.45;;
38715;SDS011;24833;49.324;8.694;2023-04-26T05:16:02;2.15;;;1.20;;
38715;SDS011;24833;49.324;8.694;2023-04-26T05:18:30;2.28;;;1.30;;
38715;SDS011;24833;49.324;8.694;2023-04-26T05:20:57;1.30;;;1.20;;
38715;SDS011;24833;49.324;8.694;2023-04-26T05:23:25;1.52;;;1.42;;
38715;SDS011;24833;49.324;8.694;2023-04-26T05:25:52;1.52;;;1.30;;
38715;SDS011;24833;49.324;8.694;2023-04-26T05:28:51;1.45;;;1.15;;
38715;SDS011;24833;49.324;8.694;2023-04-26T05:31:27;2.42;;;1.45;;
38715;SDS011;24833;49.324;8.694;2023-04-26T05:34:14;2.65;;;1.42;;
38715;SDS011;24833;49.324;8.694;2023-04-26T05:36:47;3.58;;;1.33;;
38715;SDS011;24833;49.324;8.694;2023-04-26T05:39:14;1.90;;;1.20;;
38715;SDS011;24833;49.324;8.694;2023-04-26T05:41:41;2.70;;;1.33;;
38715;SDS011;24833;49.324;8.694;2023-04-26T05:44:08;1.88;;;1.45;;
38715;SDS011;24833;49.324;8.694;2023-04-26T05:46:36;3.25;;;1.38;;
38715;SDS011;24833;49.324;8.694;2023-04-26T05:49:03;3.42;;;1.73;;
38715;SDS011;24833;49.324;8.694;2023-04-26T05:51:32;2.83;;;1.83;;
38715;SDS011;24833;49.324;8.694;2023-04-26T05:53:59;4.60;;;2.15;;
38715;SDS011;24833;49.324;8.694;2023-04-26T05:56:28;3.67;;;2.00;;
38715;SDS011;24833;49.324;8.694;2023-04-26T05:58:56;2.40;;;1.73;;
38715;SDS011;24833;49.324;8.694;2023-04-26T06:01:23;2.08;;;1.58;;
38715;SDS011;24833;49.324;8.694;2023-04-26T06:03:51;4.45;;;1.73;;
38715;SDS011;24833;49.324;8.694;2023-04-26T06:06:22;3.10;;;1.80;;
38715;SDS011;24833;49.324;8.694;2023-04-26T06:08:49;3.13;;;1.90;;
38715;SDS011;24833;49.324;8.694;2023-04-26T06:11:16;2.88;;;1.85;;
38715;SDS011;24833;49.324;8.694;2023-04-26T06:13:43;2.90;;;2.00;;
38715;SDS011;24833;49.324;8.694;2023-04-26T06:16:11;4.10;;;1.55;;
38715;SDS011;24833;49.324;8.694;2023-04-26T06:18:38;2.60;;;1.50;;
38715;SDS011;24833;49.324;8.694;2023-04-26T06:21:05;7.32;;;2.20;;
38715;SDS011;24833;49.324;8.694;2023-04-26T06:23:32;6.03;;;2.67;;
38715;SDS011;24833;49.324;8.694;2023-04-26T06:25:59;3.88;;;2.53;;
38715;SDS011;24833;49.324;8.694;2023-04-26T06:28:26;3.55;;;2.20;;
38715;SDS011;24833;49.324;8.694;2023-04-26T06:30:53;3.35;;;1.70;;
38715;SDS011;24833;49.324;8.694;2023-04-26T06:33:20;3.60;;;1.95;;
38715;SDS011;24833;49.324;8.694;2023-04-26T06:35:47;2.67;;;1.65;;
38715;SDS011;24833;49.324;8.694;2023-04-26T06:38:14;2.78;;;1.85;;
38715;SDS011;24833;49.324;8.694;2023-04-26T06:40:41;3.20;;;2.28;;
38715;SDS011;24833;49.324;8.694;2023-04-26T06:43:09;2.28;;;1.77;;
38715;SDS011;24833;49.324;8.694;2023-04-26T06:45:36;4.40;;;1.98;;
38715;SDS011;24833;49.324;8.694;2023-04-26T06:48:03;2.17;;;1.98;;
38715;SDS011;24833;49.324;8.694;2023-04-26T06:50:31;2.22;;;2.03;;
38715;SDS011;24833;49.324;8.694;2023-04-26T06:52:58;2.28;;;1.88;;
38715;SDS011;24833;49.324;8.694;2023-04-26T06:55:25;2.20;;;1.75;;
38715;SDS011;24833;49.324;8.694;2023-04-26T06:57:52;2.83;;;2.13;;
38715;SDS011;24833;49.324;8.694;2023-04-26T07:00:19;3.47;;;1.88;;
38715;SDS011;24833;49.324;8.694;2023-04-26T07:02:47;2.58;;;2.13;;
38715;SDS011;24833;49.324;8.694;2023-04-26T07:05:14;5.07;;;2.80;;
38715;SDS011;24833;49.324;8.694;2023-04-26T07:07:41;4.35;;;2.17;;
38715;SDS011;24833;49.324;8.694;2023-04-26T07:10:08;3.85;;;2.13;;
38715;SDS011;24833;49.324;8.694;2023-04-26T07:12:35;3.22;;;2.30;;
38715;SDS011;24833;49.324;8.694;2023-04-26T07:15:02;2.30;;;1.95;;
38715;SDS011;24833;49.324;8.694;2023-04-26T07:17:32;8.07;;;2.42;;
38715;SDS011;24833;49.324;8.694;2023-04-26T07:19:59;3.65;;;2.40;;
38715;SDS011;24833;49.324;8.694;2023-04-26T07:22:26;3.22;;;2.30;;
38715;SDS011;24833;49.324;8.694;2023-04-26T07:24:53;2.95;;;1.98;;
38715;SDS011;24833;49.324;8.694;2023-04-26T07:27:20;2.50;;;2.15;;
38715;SDS011;24833;49.324;8.694;2023-04-26T07:29:47;3.30;;;2.17;;
38715;SDS011;24833;49.324;8.694;2023-04-26T07:32:14;4.57;;;2.45;;
38715;SDS011;24833;49.324;8.694;2023-04-26T07:34:41;3.00;;;2.45;;
38715;SDS011;24833;49.324;8.694;2023-04-26T07:37:08;3.10;;;2.30;;
38715;SDS011;24833;49.324;8.694;2023-04-26T07:39:35;3.35;;;2.60;;
38715;SDS011;24833;49.324;8.694;2023-04-26T07:42:02;4.22;;;2.65;;
38715;SDS011;24833;49.324;8.694;2023-04-26T07:44:29;4.38;;;2.60;;
38715;SDS011;24833;49.324;8.694;2023-04-26T07:46:56;4.45;;;2.33;;
38715;SDS011;24833;49.324;8.694;2023-04-26T07:49:23;4.53;;;2.05;;
38715;SDS011;24833;49.324;8.694;2023-04-26T07:51:50;3.28;;;2.00;;
38715;SDS011;24833;49.324;8.694;2023-04-26T07:54:17;2.63;;;1.80;;
38715;SDS011;24833;49.324;8.694;2023-04-26T07:56:44;4.97;;;2.25;;
38715;SDS011;24833;49.324;8.694;2023-04-26T07:59:11;2.92;;;2.05;;
38715;SDS011;24833;49.324;8.694;2023-04-26T08:01:38;3.80;;;2.05;;
38715;SDS011;24833;49.324;8.694;2023-04-26T08:04:06;5.10;;;2.00;;
38715;SDS011;24833;49.324;8.694;2023-04-26T08:06:34;3.63;;;2.08;;
38715;SDS011;24833;49.324;8.694;2023-04-26T08:09:01;4.07;;;1.95;;
38715;SDS011;24833;49.324;8.694;2023-04-26T08:11:30;3.53;;;2.05;;
38715;SDS011;24833;49.324;8.694;2023-04-26T08:13:57;4.90;;;2.50;;
38715;SDS011;24833;49.324;8.694;2023-04-26T08:16:24;4.50;;;2.92;;
38715;SDS011;24833;49.324;8.694;2023-04-26T08:18:51;5.07;;;2.38;;
38715;SDS011;24833;49.324;8.694;2023-04-26T08:21:18;2.90;;;1.95;;
38715;SDS011;24833;49.324;8.694;2023-04-26T08:23:45;4.40;;;2.20;;
38715;SDS011;24833;49.324;8.694;2023-04-26T08:26:12;3.38;;;1.65;;
38715;SDS011;24833;49.324;8.694;2023-04-26T08:28:39;4.40;;;2.13;;
38715;SDS011;24833;49.324;8.694;2023-04-26T08:31:06;2.72;;;1.80;;
38715;SDS011;24833;49.324;8.694;2023-04-26T08:33:33;3.42;;;2.05;;
38715;SDS011;24833;49.324;8.694;2023-04-26T08:36:00;4.45;;;1.90;;
38715;SDS011;24833;49.324;8.694;2023-04-26T08:38:27;4.50;;;2.00;;
38715;SDS011;24833;49.324;8.694;2023-04-26T08:40:55;2.53;;;1.60;;
38715;SDS011;24833;49.324;8.694;2023-04-26T08:43:27;2.20;;;1.48;;
38715;SDS011;24833;49.324;8.694;2023-04-26T08:45:55;3.63;;;1.67;;
38715;SDS011;24833;49.324;8.694;2023-04-26T08:48:24;1.83;;;1.50;;
38715;SDS011;24833;49.324;8.694;2023-04-26T08:50:55;3.95;;;1.50;;
38715;SDS011;24833;49.324;8.694;2023-04-26T08:53:22;2.88;;;1.67;;
38715;SDS011;24833;49.324;8.694;2023-04-26T08:55:51;4.63;;;1.95;;
38715;SDS011;24833;49.324;8.694;2023-04-26T08:58:19;3.28;;;1.90;;
38715;SDS011;24833;49.324;8.694;2023-04-26T09:00:47;3.15;;;1.67;;
38715;SDS011;24833;49.324;8.694;2023-04-26T09:03:16;4.60;;;1.92;;
38715;SDS011;24833;49.324;8.694;2023-04-26T09:05:48;2.63;;;1.67;;
38715;SDS011;24833;49.324;8.694;2023-04-26T09:08:16;2.53;;;1.90;;
38715;SDS011;24833;49.324;8.694;2023-04-26T09:10:43;4.72;;;2.05;;
38715;SDS011;24833;49.324;8.694;2023-04-26T09:13:10;2.92;;;1.73;;
38715;SDS011;24833;49.324;8.694;2023-04-26T09:15:38;2.65;;;1.80;;
38715;SDS011;24833;49.324;8.694;2023-04-26T09:18:21;3.53;;;1.95;;
38715;SDS011;24833;49.324;8.694;2023-04-26T09:21:05;4.50;;;1.75;;
38715;SDS011;24833;49.324;8.694;2023-04-26T09:23:34;2.42;;;1.52;;
38715;SDS011;24833;49.324;8.694;2023-04-26T09:26:17;5.95;;;1.58;;
38715;SDS011;24833;49.324;8.694;2023-04-26T09:28:46;2.72;;;1.58;;
38715;SDS011;24833;49.324;8.694;2023-04-26T09:31:21;2.80;;;1.67;;
38715;SDS011;24833;49.324;8.694;2023-04-26T09:34:06;1.88;;;1.20;;
38715;SDS011;24833;49.324;8.694;2023-04-26T09:39:12;5.15;;;1.73;;
38715;SDS011;24833;49.324;8.694;2023-04-26T09:41:43;3.60;;;1.65;;
38715;SDS011;24833;49.324;8.694;2023-04-26T09:44:20;1.75;;;1.40;;
38715;SDS011;24833;49.324;8.694;2023-04-26T09:49:45;3.28;;;1.88;;
38715;SDS011;24833;49.324;8.694;2023-04-26T09:52:16;3.15;;;1.75;;
38715;SDS011;24833;49.324;8.694;2023-04-26T09:54:48;4.38;;;1.90;;
38715;SDS011;24833;49.324;8.694;2023-04-26T09:57:18;3.38;;;1.48;;
38715;SDS011;24833;49.324;8.694;2023-04-26T09:59:48;2.80;;;1.38;;
38715;SDS011;24833;49.324;8.694;2023-04-26T10:02:24;2.30;;;1.58;;
38715;SDS011;24833;49.324;8.694;2023-04-26T10:04:53;2.53;;;1.75;;
38715;SDS011;24833;49.324;8.694;2023-04-26T10:07:23;3.83;;;1.52;;
38715;SDS011;24833;49.324;8.694;2023-04-26T10:09:51;2.60;;;1.75;;
38715;SDS011;24833;49.324;8.694;2023-04-26T10:12:20;4.68;;;1.90;;
38715;SDS011;24833;49.324;8.694;2023-04-26T10:14:47;2.78;;;1.80;;
38715;SDS011;24833;49.324;8.694;2023-04-26T10:17:14;4.05;;;2.03;;
38715;SDS011;24833;49.324;8.694;2023-04-26T10:19:44;3.80;;;1.55;;
38715;SDS011;24833;49.324;8.694;2023-04-26T10:22:18;2.72;;;1.60;;
38715;SDS011;24833;49.324;8.694;2023-04-26T10:24:51;3.47;;;1.40;;
38715;SDS011;24833;49.324;8.694;2023-04-26T10:35:25;5.38;;;1.50;;
38715;SDS011;24833;49.324;8.694;2023-04-26T10:45:37;2.17;;;1.27;;
38715;SDS011;24833;49.324;8.694;2023-04-26T10:48:15;4.18;;;1.58;;
38715;SDS011;24833;49.324;8.694;2023-04-26T10:53:31;3.05;;;1.85;;
38715;SDS011;24833;49.324;8.694;2023-04-26T10:55:59;5.63;;;1.90;;
38715;SDS011;24833;49.324;8.694;2023-04-26T10:58:39;2.90;;;1.92;;
38715;SDS011;24833;49.324;8.694;2023-04-26T11:01:07;4.22;;;2.25;;
38715;SDS011;24833;49.324;8.694;2023-04-26T11:06:23;4.22;;;1.67;;
38715;SDS011;24833;49.324;8.694;2023-04-26T11:08:52;4.55;;;2.00;;
38715;SDS011;24833;49.324;8.694;2023-04-26T11:11:20;3.75;;;1.88;;
38715;SDS011;24833;49.324;8.694;2023-04-26T11:13:52;2.47;;;1.50;;
38715;SDS011;24833;49.324;8.694;2023-04-26T11:16:19;4.60;;;2.42;;
38715;SDS011;24833;49.324;8.694;2023-04-26T11:18:46;2.17;;;1.77;;
38715;SDS011;24833;49.324;8.694;2023-04-26T11:21:13;2.38;;;1.67;;
38715;SDS011;24833;49.324;8.694;2023-04-26T11:23:51;3.03;;;1.57;;
38715;SDS011;24833;49.324;8.694;2023-04-26T11:26:20;2.58;;;1.42;;
38715;SDS011;24833;49.324;8.694;2023-04-26T11:28:48;2.67;;;1.50;;
38715;SDS011;24833;49.324;8.694;2023-04-26T11:31:17;2.85;;;1.52;;
38715;SDS011;24833;49.324;8.694;2023-04-26T11:33:44;3.38;;;1.70;;
38715;SDS011;24833;49.324;8.694;2023-04-26T11:36:15;3.33;;;1.80;;
38715;SDS011;24833;49.324;8.694;2023-04-26T11:38:44;2.38;;;1.38;;
38715;SDS011;24833;49.324;8.694;2023-04-26T11:41:11;2.30;;;1.58;;
38715;SDS011;24833;49.324;8.694;2023-04-26T11:43:38;3.13;;;1.77;;
38715;SDS011;24833;49.324;8.694;2023-04-26T11:46:06;5.53;;;1.60;;
38715;SDS011;24833;49.324;8.694;2023-04-26T11:48:36;3.35;;;1.88;;
38715;SDS011;24833;49.324;8.694;2023-04-26T11:51:04;1.98;;;1.38;;
38715;SDS011;24833;49.324;8.694;2023-04-26T11:53:34;1.65;;;1.50;;
38715;SDS011;24833;49.324;8.694;2023-04-26T11:56:15;4.15;;;1.48;;
38715;SDS011;24833;49.324;8.694;2023-04-26T11:58:46;2.97;;;1.50;;
38715;SDS011;24833;49.324;8.694;2023-04-26T12:01:19;2.95;;;1.52;;
38715;SDS011;24833;49.324;8.694;2023-04-26T12:03:58;2.30;;;1.50;;
38715;SDS011;24833;49.324;8.694;2023-04-26T12:06:30;4.78;;;1.90;;
38715;SDS011;24833;49.324;8.694;2023-04-26T12:09:08;4.03;;;1.73;;
38715;SDS011;24833;49.324;8.694;2023-04-26T12:11:36;2.85;;;1.83;;
38715;SDS011;24833;49.324;8.694;2023-04-26T12:14:04;3.22;;;1.50;;
38715;SDS011;24833;49.324;8.694;2023-04-26T12:16:35;3.10;;;1.80;;
38715;SDS011;24833;49.324;8.694;2023-04-26T12:19:06;3.13;;;1.60;;
38715;SDS011;24833;49.324;8.694;2023-04-26T12:21:40;3.05;;;1.40;;
38715;SDS011;24833;49.324;8.694;2023-04-26T12:24:22;2.40;;;1.50;;
38715;SDS011;24833;49.324;8.694;2023-04-26T12:26:58;4.00;;;1.50;;
38715;SDS011;24833;49.324;8.694;2023-04-26T12:29:28;3.50;;;1.60;;
38715;SDS011;24833;49.324;8.694;2023-04-26T12:31:57;1.80;;;1.13;;
38715;SDS011;24833;49.324;8.694;2023-04-26T12:34:25;2.28;;;1.20;;
38715;SDS011;24833;49.324;8.694;2023-04-26T12:36:53;2.60;;;1.73;;
38715;SDS011;24833;49.324;8.694;2023-04-26T12:39:20;1.60;;;1.42;;
38715;SDS011;24833;49.324;8.694;2023-04-26T12:41:47;2.38;;;1.27;;
38715;SDS011;24833;49.324;8.694;2023-04-26T12:44:14;1.73;;;1.13;;
38715;SDS011;24833;49.324;8.694;2023-04-26T12:46:42;1.63;;;1.20;;
38715;SDS011;24833;49.324;8.694;2023-04-26T12:49:09;2.65;;;1.20;;
38715;SDS011;24833;49.324;8.694;2023-04-26T12:51:36;2.80;;;1.55;;
38715;SDS011;24833;49.324;8.694;2023-04-26T12:54:06;2.78;;;1.60;;
38715;SDS011;24833;49.324;8.694;2023-04-26T12:56:33;2.63;;;1.35;;
38715;SDS011;24833;49.324;8.694;2023-04-26T12:59:03;3.65;;;1.60;;
38715;SDS011;24833;49.324;8.694;2023-04-26T13:01:30;4.93;;;1.73;;
38715;SDS011;24833;49.324;8.694;2023-04-26T13:03:57;2.50;;;1.55;;
38715;SDS011;24833;49.324;8.694;2023-04-26T13:06:26;2.53;;;1.50;;
38715;SDS011;24833;49.324;8.694;2023-04-26T13:08:53;2.63;;;1.30;;
38715;SDS011;24833;49.324;8.694;2023-04-26T13:11:21;2.45;;;1.30;;
38715;SDS011;24833;49.324;8.694;2023-04-26T13:13:48;4.80;;;1.60;;
38715;SDS011;24833;49.324;8.694;2023-04-26T13:16:15;1.63;;;1.27;;
38715;SDS011;24833;49.324;8.694;2023-04-26T13:18:42;2.58;;;1.42;;
38715;SDS011;24833;49.324;8.694;2023-04-26T13:21:09;3.95;;;1.42;;
38715;SDS011;24833;49.324;8.694;2023-04-26T13:23:36;2.90;;;1.58;;
38715;SDS011;24833;49.324;8.694;2023-04-26T13:26:03;3.05;;;1.60;;
38715;SDS011;24833;49.324;8.694;2023-04-26T13:28:30;1.88;;;1.20;;
38715;SDS011;24833;49.324;8.694;2023-04-26T13:30:57;2.05;;;1.30;;
38715;SDS011;24833;49.324;8.694;2023-04-26T13:33:24;2.90;;;1.52;;
38715;SDS011;24833;49.324;8.694;2023-04-26T13:35:51;3.95;;;1.58;;
38715;SDS011;24833;49.324;8.694;2023-04-26T13:38:18;2.22;;;1.67;;
38715;SDS011;24833;49.324;8.694;2023-04-26T13:40:45;2.22;;;1.17;;
38715;SDS011;24833;49.324;8.694;2023-04-26T13:43:12;2.25;;;1.48;;
38715;SDS011;24833;49.324;8.694;2023-04-26T13:45:39;2.25;;;1.23;;
38715;SDS011;24833;49.324;8.694;2023-04-26T13:48:06;3.60;;;1.50;;
38715;SDS011;24833;49.324;8.694;2023-04-26T13:50:34;2.25;;;1.33;;
38715;SDS011;24833;49.324;8.694;2023-04-26T13:53:02;3.83;;;1.40;;
38715;SDS011;24833;49.324;8.694;2023-04-26T13:55:29;2.97;;;1.27;;
38715;SDS011;24833;49.324;8.694;2023-04-26T13:57:57;3.13;;;1.30;;
38715;SDS011;24833;49.324;8.694;2023-04-26T14:00:24;1.92;;;1.38;;
38715;SDS011;24833;49.324;8.694;2023-04-26T14:02:51;2.78;;;1.60;;
38715;SDS011;24833;49.324;8.694;2023-04-26T14:05:19;3.63;;;1.75;;
38715;SDS011;24833;49.324;8.694;2023-04-26T14:07:46;3.13;;;1.27;;
38715;SDS011;24833;49.324;8.694;2023-04-26T14:10:13;3.28;;;1.80;;
38715;SDS011;24833;49.324;8.694;2023-04-26T14:12:41;2.55;;;1.52;;
38715;SDS011;24833;49.324;8.694;2023-04-26T14:15:08;2.58;;;1.52;;
38715;SDS011;24833;49.324;8.694;2023-04-26T14:17:35;2.80;;;1.38;;
38715;SDS011;24833;49.324;8.694;2023-04-26T14:20:02;2.40;;;1.60;;
38715;SDS011;24833;49.324;8.694;2023-04-26T14:22:30;2.05;;;1.25;;
38715;SDS011;24833;49.324;8.694;2023-04-26T14:24:57;2.67;;;1.50;;
38715;SDS011;24833;49.324;8.694;2023-04-26T14:27:24;3.30;;;1.55;;
38715;SDS011;24833;49.324;8.694;2023-04-26T14:29:52;2.58;;;1.50;;
38715;SDS011;24833;49.324;8.694;2023-04-26T14:32:19;2.72;;;1.52;;
38715;SDS011;24833;49.324;8.694;2023-04-26T14:34:46;2.95;;;1.60;;
38715;SDS011;24833;49.324;8.694;2023-04-26T14:37:12;3.60;;;1.58;;
38715;SDS011;24833;49.324;8.694;2023-04-26T14:39:40;2.75;;;1.42;;
38715;SDS011;24833;49.324;8.694;2023-04-26T14:42:08;3.05;;;1.48;;
38715;SDS011;24833;49.324;8.694;2023-04-26T14:44:36;5.15;;;1.63;;
38715;SDS011;24833;49.324;8.694;2023-04-26T14:47:03;2.50;;;1.50;;
38715;SDS011;24833;49.324;8.694;2023-04-26T14:49:30;3.63;;;1.52;;
38715;SDS011;24833;49.324;8.694;2023-04-26T14:51:57;2.70;;;1.48;;
38715;SDS011;24833;49.324;8.694;2023-04-26T14:54:24;2.75;;;1.40;;
38715;SDS011;24833;49.324;8.694;2023-04-26T14:56:51;3.13;;;1.75;;
38715;SDS011;24833;49.324;8.694;2023-04-26T14:59:18;4.30;;;1.25;;
38715;SDS011;24833;49.324;8.694;2023-04-26T15:01:46;3.17;;;1.30;;
38715;SDS011;24833;49.324;8.694;2023-04-26T15:04:13;5.07;;;1.60;;
38715;SDS011;24833;49.324;8.694;2023-04-26T15:06:41;3.25;;;1.40;;
38715;SDS011;24833;49.324;8.694;2023-04-26T15:09:08;2.10;;;1.38;;
38715;SDS011;24833;49.324;8.694;2023-04-26T15:11:36;2.58;;;1.40;;
38715;SDS011;24833;49.324;8.694;2023-04-26T15:14:03;2.55;;;1.60;;
38715;SDS011;24833;49.324;8.694;2023-04-26T15:16:30;3.28;;;1.30;;
38715;SDS011;24833;49.324;8.694;2023-04-26T15:18:57;5.35;;;1.20;;
38715;SDS011;24833;49.324;8.694;2023-04-26T15:21:24;2.75;;;1.80;;